Time;durP1;ratioP1;P1;durP2;ratioP2;P2;SDS_P1;SDS_P2;PMS_P1;PMS_P2;Temp;Humidity;BMP_temperature;BMP_pressure;BME280_temperature;BME280_humidity;BME280_pressure;Samples;Min_cycle;Max_cycle;Signal;HPM_P1;HPM_P2
2024/04/05 00:01:20;;;;;;;78.30;11.25;;;;;;;;;;4947894;28;20047;-67
2024/04/05 00:03:47;;;;;;;81.15;11.35;;;;;;;;;;4946697;28;20042;-68
2024/04/05 00:06:13;;;;;;;82.43;13.65;;;;;;;;;;4963124;28;20486;-67
2024/04/05 00:08:39;;;;;;;79.78;10.70;;;;;;;;;;4963252;28;20116;-68
2024/04/05 00:11:06;;;;;;;82.72;12.85;;;;;;;;;;4963371;28;20061;-68
2024/04/05 00:13:32;;;;;;;72.15;12.23;;;;;;;;;;4962272;28;20100;-67
2024/04/05 00:16:01;;;;;;;88.20;13.48;;;;;;;;;;4945986;28;20273;-68
2024/04/05 00:18:33;;;;;;;75.72;11.88;;;;;;;;;;4952603;28;20058;-68
2024/04/05 00:20:59;;;;;;;69.82;11.80;;;;;;;;;;4964172;28;20783;-68
2024/04/05 00:23:27;;;;;;;74.97;11.40;;;;;;;;;;4947200;28;20050;-68
2024/04/05 00:25:57;;;;;;;69.07;10.73;;;;;;;;;;4945158;28;20054;-68
2024/04/05 00:28:23;;;;;;;65.93;9.68;;;;;;;;;;4947176;28;20054;-68
2024/04/05 00:30:50;;;;;;;68.45;9.88;;;;;;;;;;4963163;28;20474;-68
2024/04/05 00:33:16;;;;;;;64.15;9.05;;;;;;;;;;4944609;28;21064;-68
2024/04/05 00:35:48;;;;;;;68.43;9.00;;;;;;;;;;4962326;28;20062;-67
2024/04/05 00:38:14;;;;;;;70.53;10.35;;;;;;;;;;4962715;28;20053;-68
2024/04/05 00:40:40;;;;;;;66.90;10.48;;;;;;;;;;4962791;28;20043;-67
2024/04/05 00:43:06;;;;;;;58.97;8.90;;;;;;;;;;4961556;28;20038;-68
2024/04/05 00:45:33;;;;;;;61.08;10.60;;;;;;;;;;4945659;28;20061;-67
2024/04/05 00:47:59;;;;;;;56.30;8.85;;;;;;;;;;4945918;28;20125;-67
2024/04/05 00:50:30;;;;;;;63.30;9.00;;;;;;;;;;4964983;28;20046;-67
2024/04/05 00:52:57;;;;;;;59.30;10.15;;;;;;;;;;4962118;28;20050;-68
2024/04/05 00:55:23;;;;;;;65.53;9.35;;;;;;;;;;4966047;28;20055;-68
2024/04/05 00:57:50;;;;;;;58.05;12.32;;;;;;;;;;4962490;28;20374;-68
2024/04/05 01:00:18;;;;;;;57.13;9.80;;;;;;;;;;4962006;28;20066;-67
2024/04/05 01:02:45;;;;;;;64.00;10.82;;;;;;;;;;4945630;28;20054;-68
2024/04/05 01:05:14;;;;;;;54.88;9.77;;;;;;;;;;4962155;28;20061;-68
2024/04/05 01:07:42;;;;;;;57.45;8.30;;;;;;;;;;4965981;28;20153;-68
2024/04/05 01:10:08;;;;;;;56.15;8.77;;;;;;;;;;4963733;28;20046;-68
2024/04/05 01:12:35;;;;;;;61.13;8.75;;;;;;;;;;4965985;28;20049;-68
2024/04/05 01:15:02;;;;;;;54.78;8.18;;;;;;;;;;4948465;28;20119;-68
2024/04/05 01:17:28;;;;;;;54.05;8.07;;;;;;;;;;4946551;28;20450;-67
2024/04/05 01:19:55;;;;;;;58.40;8.50;;;;;;;;;;4949823;28;20102;-67
2024/04/05 01:22:24;;;;;;;55.65;9.35;;;;;;;;;;4966423;28;20146;-68
2024/04/05 01:24:50;;;;;;;70.05;8.98;;;;;;;;;;4964261;28;20495;-67
2024/04/05 01:27:16;;;;;;;63.08;9.52;;;;;;;;;;4967028;28;20085;-67
2024/04/05 01:29:43;;;;;;;66.07;10.80;;;;;;;;;;4965708;28;20115;-67
2024/04/05 01:32:09;;;;;;;67.15;10.50;;;;;;;;;;4949530;28;20058;-67
2024/04/05 01:34:35;;;;;;;64.68;9.88;;;;;;;;;;4946836;28;20043;-67
2024/04/05 01:37:01;;;;;;;52.90;8.45;;;;;;;;;;4943917;28;20047;-67
2024/04/05 01:39:27;;;;;;;56.55;8.32;;;;;;;;;;4945649;28;20066;-67
2024/04/05 01:41:54;;;;;;;60.28;10.13;;;;;;;;;;4948177;28;20089;-67
2024/04/05 01:44:20;;;;;;;54.88;7.40;;;;;;;;;;4964817;28;20058;-67
2024/04/05 01:46:46;;;;;;;59.95;8.00;;;;;;;;;;4963798;28;21109;-68
2024/04/05 01:49:12;;;;;;;45.97;8.68;;;;;;;;;;4947476;28;20142;-67
2024/04/05 01:51:39;;;;;;;64.65;9.88;;;;;;;;;;4950744;28;20051;-67
2024/04/05 01:54:05;;;;;;;57.65;8.77;;;;;;;;;;4965587;28;20086;-67
2024/04/05 01:56:32;;;;;;;54.50;9.77;;;;;;;;;;4946054;28;21889;-67
2024/04/05 01:58:58;;;;;;;48.60;7.88;;;;;;;;;;4964182;28;20043;-67
2024/04/05 02:01:25;;;;;;;44.58;6.82;;;;;;;;;;4962698;28;20711;-67
2024/04/05 02:03:52;;;;;;;57.97;9.23;;;;;;;;;;4963066;28;20043;-67
2024/04/05 02:06:18;;;;;;;46.78;8.13;;;;;;;;;;4957944;28;20043;-67
2024/04/05 02:08:44;;;;;;;47.47;8.30;;;;;;;;;;4945166;28;20055;-67
2024/04/05 02:11:10;;;;;;;45.85;8.15;;;;;;;;;;4943482;28;20173;-67
2024/04/05 02:13:38;;;;;;;47.95;8.85;;;;;;;;;;4942935;28;20044;-67
2024/04/05 02:16:04;;;;;;;55.05;8.00;;;;;;;;;;4940833;28;20070;-67
2024/04/05 02:18:30;;;;;;;41.58;7.50;;;;;;;;;;4935331;28;20043;-67
2024/04/05 02:20:57;;;;;;;50.05;7.15;;;;;;;;;;4941448;28;20171;-67
2024/04/05 02:23:23;;;;;;;48.83;6.95;;;;;;;;;;4939635;28;20411;-67
2024/04/05 02:25:50;;;;;;;51.70;8.32;;;;;;;;;;4941490;28;21035;-67
2024/04/05 02:28:17;;;;;;;48.60;7.90;;;;;;;;;;4942246;28;20133;-67
2024/04/05 02:30:43;;;;;;;47.45;7.30;;;;;;;;;;4941563;28;20181;-67
2024/04/05 02:33:12;;;;;;;60.15;8.65;;;;;;;;;;4939574;28;20055;-67
2024/04/05 02:35:38;;;;;;;48.38;8.18;;;;;;;;;;4940802;28;20051;-67
2024/04/05 02:38:05;;;;;;;45.85;6.95;;;;;;;;;;4942405;28;20621;-67
2024/04/05 02:40:31;;;;;;;45.42;7.68;;;;;;;;;;4942768;28;20126;-68
2024/04/05 02:42:58;;;;;;;52.70;8.07;;;;;;;;;;4942641;28;20055;-67
2024/04/05 02:45:24;;;;;;;43.88;7.45;;;;;;;;;;4945538;28;20047;-67
2024/04/05 02:47:50;;;;;;;41.67;7.20;;;;;;;;;;4943538;28;20074;-67
2024/04/05 02:50:16;;;;;;;49.47;10.05;;;;;;;;;;4945432;28;20123;-67
2024/04/05 02:52:43;;;;;;;40.00;7.22;;;;;;;;;;4946444;28;20154;-67
2024/04/05 02:55:09;;;;;;;40.15;7.85;;;;;;;;;;4939620;28;20080;-67
2024/04/05 02:57:36;;;;;;;43.00;8.00;;;;;;;;;;4945863;28;20043;-67
2024/04/05 03:00:03;;;;;;;46.80;9.10;;;;;;;;;;4948089;28;20051;-67
2024/04/05 03:02:29;;;;;;;51.22;7.75;;;;;;;;;;4947347;28;20051;-67
2024/04/05 03:04:55;;;;;;;48.03;8.27;;;;;;;;;;4962853;28;20047;-67
2024/04/05 03:07:21;;;;;;;48.58;8.05;;;;;;;;;;4953877;28;20059;-67
2024/04/05 03:09:47;;;;;;;43.38;8.68;;;;;;;;;;4948764;28;20184;-67
2024/04/05 03:12:14;;;;;;;51.70;9.00;;;;;;;;;;4965571;28;20475;-67
2024/04/05 03:14:40;;;;;;;42.50;7.88;;;;;;;;;;4948014;28;20071;-67
2024/04/05 03:17:07;;;;;;;40.08;8.75;;;;;;;;;;4947008;28;20047;-67
2024/04/05 03:19:33;;;;;;;43.13;8.40;;;;;;;;;;4966309;28;20061;-67
2024/04/05 03:21:59;;;;;;;35.42;7.70;;;;;;;;;;4946656;28;20117;-67
2024/04/05 03:24:26;;;;;;;42.10;7.88;;;;;;;;;;4964655;28;20056;-67
2024/04/05 03:26:52;;;;;;;42.85;9.18;;;;;;;;;;4964654;28;20103;-67
2024/04/05 03:29:18;;;;;;;45.28;8.35;;;;;;;;;;4964300;28;20419;-67
2024/04/05 03:31:46;;;;;;;42.83;6.78;;;;;;;;;;4964464;28;20050;-67
2024/04/05 03:34:12;;;;;;;43.72;7.90;;;;;;;;;;4949419;28;20216;-67
2024/04/05 03:36:38;;;;;;;49.08;8.32;;;;;;;;;;4967805;28;20042;-67
2024/04/05 03:39:05;;;;;;;43.60;7.75;;;;;;;;;;4946599;28;20490;-67
2024/04/05 03:41:31;;;;;;;34.92;6.45;;;;;;;;;;4947299;28;20047;-67
2024/04/05 03:43:57;;;;;;;40.90;8.50;;;;;;;;;;4946279;28;20042;-66
2024/04/05 03:46:23;;;;;;;33.47;6.78;;;;;;;;;;4946506;28;20564;-66
2024/04/05 03:48:49;;;;;;;42.08;7.40;;;;;;;;;;4947446;28;20039;-67
2024/04/05 03:51:16;;;;;;;40.17;6.63;;;;;;;;;;4962595;28;20050;-67
2024/04/05 03:53:42;;;;;;;44.72;7.70;;;;;;;;;;4947994;28;20627;-66
2024/04/05 03:56:08;;;;;;;40.90;6.80;;;;;;;;;;4963015;28;20050;-67
2024/04/05 03:58:34;;;;;;;40.85;8.27;;;;;;;;;;4945547;28;20131;-67
2024/04/05 04:01:00;;;;;;;45.92;7.05;;;;;;;;;;4947229;28;20046;-67
2024/04/05 04:03:27;;;;;;;34.85;6.93;;;;;;;;;;4965868;28;20089;-66
2024/04/05 04:05:54;;;;;;;45.65;7.70;;;;;;;;;;4947078;28;20142;-67
2024/04/05 04:08:20;;;;;;;41.83;8.00;;;;;;;;;;4965803;28;20054;-66
2024/04/05 04:10:47;;;;;;;42.95;7.55;;;;;;;;;;4946319;28;20558;-66
2024/04/05 04:13:14;;;;;;;37.50;8.40;;;;;;;;;;4963831;28;20046;-67
2024/04/05 04:15:40;;;;;;;44.25;8.88;;;;;;;;;;4953928;28;20042;-67
2024/04/05 04:18:07;;;;;;;50.30;9.48;;;;;;;;;;4945363;28;20059;-66
2024/04/05 04:20:33;;;;;;;50.70;9.02;;;;;;;;;;4965203;28;20047;-66
2024/04/05 04:22:59;;;;;;;41.70;8.43;;;;;;;;;;4955664;28;20106;-66
2024/04/05 04:25:26;;;;;;;46.13;8.35;;;;;;;;;;4963915;28;20506;-66
2024/04/05 04:27:52;;;;;;;45.15;8.20;;;;;;;;;;4964366;28;20360;-66
2024/04/05 04:30:18;;;;;;;42.83;8.88;;;;;;;;;;4967598;28;20061;-66
2024/04/05 04:32:45;;;;;;;38.92;8.18;;;;;;;;;;4947686;28;20042;-66
2024/04/05 04:35:11;;;;;;;47.10;7.68;;;;;;;;;;4946788;28;20133;-66
2024/04/05 04:37:37;;;;;;;38.80;7.70;;;;;;;;;;4948351;28;20043;-66
2024/04/05 04:40:04;;;;;;;41.88;7.75;;;;;;;;;;4963036;28;20045;-67
2024/04/05 04:42:30;;;;;;;36.30;7.80;;;;;;;;;;4945379;28;20059;-66
2024/04/05 04:44:57;;;;;;;43.85;8.38;;;;;;;;;;4963985;28;20205;-66
2024/04/05 04:47:25;;;;;;;45.95;9.05;;;;;;;;;;4947347;28;20089;-66
2024/04/05 04:49:52;;;;;;;45.40;8.48;;;;;;;;;;4964223;28;20035;-67
2024/04/05 04:52:18;;;;;;;46.53;8.30;;;;;;;;;;4962647;28;20046;-66
2024/04/05 04:54:44;;;;;;;43.33;7.22;;;;;;;;;;4963009;28;20050;-66
2024/04/05 04:57:10;;;;;;;45.28;8.75;;;;;;;;;;4945743;28;20144;-66
2024/04/05 04:59:36;;;;;;;44.33;7.53;;;;;;;;;;4945195;28;20054;-66
2024/04/05 05:02:03;;;;;;;48.72;9.52;;;;;;;;;;4963446;28;20545;-66
2024/04/05 05:04:29;;;;;;;38.85;8.60;;;;;;;;;;4964948;28;20050;-66
2024/04/05 05:06:55;;;;;;;44.20;8.55;;;;;;;;;;4957953;28;20110;-67
2024/04/05 05:09:21;;;;;;;42.47;9.73;;;;;;;;;;4941828;28;20467;-66
2024/04/05 05:11:47;;;;;;;40.30;7.70;;;;;;;;;;4942048;28;20098;-66
2024/04/05 05:14:15;;;;;;;43.45;8.45;;;;;;;;;;4943117;28;20104;-66
2024/04/05 05:16:41;;;;;;;47.70;7.47;;;;;;;;;;4942029;28;20051;-66
2024/04/05 05:19:07;;;;;;;40.08;7.60;;;;;;;;;;4945781;28;20052;-66
2024/04/05 05:21:35;;;;;;;43.28;8.23;;;;;;;;;;4941296;28;20133;-66
2024/04/05 05:24:01;;;;;;;41.55;8.88;;;;;;;;;;4941539;28;20040;-66
2024/04/05 05:26:27;;;;;;;37.10;8.60;;;;;;;;;;4941322;28;20051;-66
2024/04/05 05:28:54;;;;;;;39.70;9.20;;;;;;;;;;4938266;28;20163;-66
2024/04/05 05:31:20;;;;;;;46.20;8.68;;;;;;;;;;4940025;28;20055;-66
2024/04/05 05:33:47;;;;;;;47.75;9.63;;;;;;;;;;4942765;28;22228;-66
2024/04/05 05:36:13;;;;;;;36.53;8.38;;;;;;;;;;4943602;28;20047;-66
2024/04/05 05:38:40;;;;;;;48.30;9.20;;;;;;;;;;4942403;28;20066;-66
2024/04/05 05:41:06;;;;;;;30.80;6.70;;;;;;;;;;4946913;28;20073;-66
2024/04/05 05:43:33;;;;;;;44.30;7.85;;;;;;;;;;4944274;28;20182;-66
2024/04/05 05:45:59;;;;;;;45.13;8.57;;;;;;;;;;4944429;28;20050;-66
2024/04/05 05:48:25;;;;;;;39.70;7.50;;;;;;;;;;4946568;28;20042;-66
2024/04/05 05:50:51;;;;;;;46.75;8.82;;;;;;;;;;4944089;28;20059;-66
2024/04/05 05:53:18;;;;;;;40.08;8.02;;;;;;;;;;4944413;28;20122;-65
2024/04/05 05:55:44;;;;;;;33.08;7.85;;;;;;;;;;4943961;28;20066;-66
2024/04/05 05:58:10;;;;;;;48.47;9.05;;;;;;;;;;4938873;28;20375;-67
2024/04/05 06:00:36;;;;;;;40.08;8.15;;;;;;;;;;4945157;28;20314;-67
2024/04/05 06:03:03;;;;;;;52.58;9.07;;;;;;;;;;4945415;28;20050;-67
2024/04/05 06:05:29;;;;;;;45.40;9.13;;;;;;;;;;4945108;28;20135;-67
2024/04/05 06:07:55;;;;;;;41.95;9.02;;;;;;;;;;4958409;28;20077;-66
2024/04/05 06:10:21;;;;;;;49.78;9.38;;;;;;;;;;4964366;28;20228;-67
2024/04/05 06:12:48;;;;;;;44.83;9.18;;;;;;;;;;4965582;28;20137;-67
2024/04/05 06:15:15;;;;;;;45.50;9.00;;;;;;;;;;4944836;28;20058;-67
2024/04/05 06:17:41;;;;;;;47.88;9.90;;;;;;;;;;4964389;28;20408;-68
2024/04/05 06:20:09;;;;;;;39.63;10.30;;;;;;;;;;4947625;28;20047;-67
2024/04/05 06:22:36;;;;;;;38.53;8.68;;;;;;;;;;4965714;28;20051;-67
2024/04/05 06:25:02;;;;;;;45.47;9.00;;;;;;;;;;4964640;28;20691;-67
2024/04/05 06:27:28;;;;;;;37.95;8.15;;;;;;;;;;4946870;28;20542;-77
2024/04/05 06:29:56;;;;;;;43.55;9.10;;;;;;;;;;4946106;28;20078;-67
2024/04/05 06:32:22;;;;;;;43.88;12.00;;;;;;;;;;4945353;28;20043;-68
2024/04/05 06:34:50;;;;;;;43.15;8.77;;;;;;;;;;4962699;28;20075;-67
2024/04/05 06:37:16;;;;;;;44.78;10.45;;;;;;;;;;4947391;28;20380;-67
2024/04/05 06:39:42;;;;;;;43.35;10.05;;;;;;;;;;4961864;28;20043;-67
2024/04/05 06:42:09;;;;;;;44.13;8.27;;;;;;;;;;4931795;28;20050;-68
2024/04/05 06:44:36;;;;;;;42.00;9.20;;;;;;;;;;4948476;28;20102;-67
2024/04/05 06:47:04;;;;;;;42.80;9.02;;;;;;;;;;4963028;28;20051;-65
2024/04/05 06:49:32;;;;;;;42.13;9.52;;;;;;;;;;4947364;28;20087;-66
2024/04/05 06:52:00;;;;;;;41.00;9.50;;;;;;;;;;4963929;28;20133;-66
2024/04/05 06:54:27;;;;;;;45.55;9.75;;;;;;;;;;4964392;28;20050;-66
2024/04/05 06:56:54;;;;;;;39.47;8.77;;;;;;;;;;4947488;28;20051;-66
2024/04/05 06:59:20;;;;;;;38.03;9.35;;;;;;;;;;4965632;28;20385;-66
2024/04/05 07:01:46;;;;;;;42.10;10.68;;;;;;;;;;4948836;28;20046;-66
2024/04/05 07:04:13;;;;;;;43.83;8.93;;;;;;;;;;4950041;28;20058;-67
2024/04/05 07:06:39;;;;;;;36.47;8.15;;;;;;;;;;4961313;28;20055;-66
2024/04/05 07:09:08;;;;;;;33.17;8.93;;;;;;;;;;4963440;28;20047;-70
2024/04/05 07:11:37;;;;;;;35.72;8.60;;;;;;;;;;4944585;28;20097;-68
2024/04/05 07:14:03;;;;;;;28.65;9.10;;;;;;;;;;4964920;28;20054;-66
2024/04/05 07:16:29;;;;;;;48.88;11.02;;;;;;;;;;4947233;28;20091;-67
2024/04/05 07:18:55;;;;;;;42.47;10.20;;;;;;;;;;4948778;28;20106;-67
2024/04/05 07:21:22;;;;;;;38.60;8.88;;;;;;;;;;4947259;28;21629;-67
2024/04/05 07:23:49;;;;;;;32.60;8.68;;;;;;;;;;4964689;28;20049;-67
2024/04/05 07:26:15;;;;;;;34.13;9.13;;;;;;;;;;4953672;28;20109;-67
2024/04/05 07:28:41;;;;;;;39.13;9.02;;;;;;;;;;4965149;28;20046;-68
2024/04/05 07:31:07;;;;;;;32.80;9.00;;;;;;;;;;4951123;28;20141;-67
2024/04/05 07:33:33;;;;;;;35.47;9.20;;;;;;;;;;4970474;28;20046;-67
2024/04/05 07:36:00;;;;;;;36.28;8.43;;;;;;;;;;4950386;28;20059;-67
2024/04/05 07:38:26;;;;;;;38.90;10.20;;;;;;;;;;4951670;28;20081;-67
2024/04/05 07:40:52;;;;;;;39.20;9.00;;;;;;;;;;4953081;28;20078;-67
2024/04/05 07:43:18;;;;;;;37.63;8.52;;;;;;;;;;4968114;28;20398;-67
2024/04/05 07:45:45;;;;;;;30.40;7.65;;;;;;;;;;4967281;28;20125;-67
2024/04/05 07:48:11;;;;;;;30.85;8.40;;;;;;;;;;4951506;28;20046;-67
2024/04/05 07:50:37;;;;;;;34.30;8.25;;;;;;;;;;4950457;28;20046;-67
2024/04/05 07:53:03;;;;;;;26.33;7.22;;;;;;;;;;4967483;28;20457;-68
2024/04/05 07:55:30;;;;;;;27.15;7.88;;;;;;;;;;4966922;28;20421;-67
2024/04/05 07:57:56;;;;;;;32.28;8.88;;;;;;;;;;4967164;28;20107;-68
2024/04/05 08:00:23;;;;;;;37.80;8.90;;;;;;;;;;4968951;28;20068;-68
2024/04/05 08:02:49;;;;;;;26.08;7.40;;;;;;;;;;4951185;28;20046;-68
2024/04/05 08:05:16;;;;;;;35.92;7.07;;;;;;;;;;4965530;28;20049;-68
2024/04/05 08:07:42;;;;;;;24.85;6.22;;;;;;;;;;4965788;28;20085;-68
2024/04/05 08:10:09;;;;;;;28.42;7.10;;;;;;;;;;4949440;28;20082;-68
2024/04/05 08:12:36;;;;;;;30.98;6.22;;;;;;;;;;4966786;28;20069;-68
2024/04/05 08:15:03;;;;;;;28.00;8.02;;;;;;;;;;4967411;28;20376;-68
2024/04/05 08:17:29;;;;;;;27.60;6.72;;;;;;;;;;4949451;28;20076;-68
2024/04/05 08:19:55;;;;;;;26.45;7.03;;;;;;;;;;4965658;28;20236;-67
2024/04/05 08:22:21;;;;;;;33.28;8.07;;;;;;;;;;4966677;28;20085;-68
2024/04/05 08:24:48;;;;;;;32.17;8.13;;;;;;;;;;4949375;28;20125;-68
2024/04/05 08:27:14;;;;;;;29.75;7.97;;;;;;;;;;4950617;28;20094;-68
2024/04/05 08:29:40;;;;;;;27.52;6.63;;;;;;;;;;4949624;28;20113;-68
2024/04/05 08:32:07;;;;;;;25.33;6.07;;;;;;;;;;4955060;28;20051;-68
2024/04/05 08:34:34;;;;;;;30.10;8.00;;;;;;;;;;4966451;28;20047;-68
2024/04/05 08:37:00;;;;;;;25.75;6.75;;;;;;;;;;4933459;28;20053;-68
2024/04/05 08:39:27;;;;;;;22.58;6.28;;;;;;;;;;4950103;28;20134;-68
2024/04/05 08:41:56;;;;;;;25.83;6.25;;;;;;;;;;4965899;28;20072;-68
2024/04/05 08:44:22;;;;;;;27.42;6.72;;;;;;;;;;4963825;28;20071;-68
2024/04/05 08:46:49;;;;;;;19.25;6.00;;;;;;;;;;4965710;28;20122;-68
2024/04/05 08:49:17;;;;;;;25.92;6.35;;;;;;;;;;4964751;28;20039;-68
2024/04/05 08:51:43;;;;;;;26.25;5.97;;;;;;;;;;4949593;28;20422;-68
2024/04/05 08:54:09;;;;;;;24.23;6.25;;;;;;;;;;4965272;28;20034;-67
2024/04/05 08:56:35;;;;;;;23.48;5.90;;;;;;;;;;4966573;28;20070;-68
2024/04/05 08:59:02;;;;;;;26.38;6.53;;;;;;;;;;4965654;28;20394;-68
2024/04/05 09:01:29;;;;;;;28.38;6.68;;;;;;;;;;4963171;28;20097;-68
2024/04/05 09:03:55;;;;;;;19.65;5.72;;;;;;;;;;4964528;28;20035;-67
2024/04/05 09:06:21;;;;;;;28.58;6.90;;;;;;;;;;4965872;28;20510;-67
2024/04/05 09:08:54;;;;;;;21.77;6.28;;;;;;;;;;4964689;28;20119;-68
2024/04/05 09:11:22;;;;;;;30.17;8.45;;;;;;;;;;4964264;28;20073;-67
2024/04/05 09:13:55;;;;;;;26.85;7.78;;;;;;;;;;4964131;28;20543;-67
2024/04/05 09:16:23;;;;;;;24.15;7.20;;;;;;;;;;4963340;28;20070;-67
2024/04/05 09:18:50;;;;;;;25.13;8.90;;;;;;;;;;4949444;28;20482;-67
2024/04/05 09:21:17;;;;;;;27.92;8.10;;;;;;;;;;4966441;28;20502;-67
2024/04/05 09:23:45;;;;;;;28.27;7.40;;;;;;;;;;4967969;28;20034;-67
2024/04/05 09:26:11;;;;;;;24.65;7.88;;;;;;;;;;4966720;28;20501;-67
2024/04/05 09:28:38;;;;;;;23.98;7.70;;;;;;;;;;4967095;28;20046;-67
2024/04/05 09:31:04;;;;;;;31.42;9.20;;;;;;;;;;4948962;28;20051;-67
2024/04/05 09:33:30;;;;;;;27.38;8.30;;;;;;;;;;4966870;28;20042;-67
2024/04/05 09:35:59;;;;;;;22.85;7.63;;;;;;;;;;4947676;28;20055;-67
2024/04/05 09:38:25;;;;;;;28.25;8.57;;;;;;;;;;4963254;28;20047;-68
2024/04/05 09:40:53;;;;;;;26.52;7.68;;;;;;;;;;4966496;28;20085;-69
2024/04/05 09:43:20;;;;;;;31.42;9.07;;;;;;;;;;4953220;28;20043;-66
2024/04/05 09:45:48;;;;;;;29.23;7.95;;;;;;;;;;4960733;28;20050;-67
2024/04/05 09:48:14;;;;;;;22.90;8.38;;;;;;;;;;4965411;28;20134;-66
2024/04/05 09:50:40;;;;;;;29.98;8.65;;;;;;;;;;4961356;28;20058;-67
2024/04/05 09:53:08;;;;;;;27.10;9.73;;;;;;;;;;4949921;28;20047;-67
2024/04/05 09:55:38;;;;;;;31.63;8.23;;;;;;;;;;4964417;28;20103;-67
2024/04/05 09:58:06;;;;;;;28.45;8.02;;;;;;;;;;4950159;28;20051;-67
2024/04/05 10:00:33;;;;;;;26.55;8.85;;;;;;;;;;4968040;28;20141;-68
2024/04/05 10:02:59;;;;;;;29.83;8.68;;;;;;;;;;4968323;28;21433;-66
2024/04/05 10:05:33;;;;;;;30.58;8.73;;;;;;;;;;4965601;28;20031;-66
2024/04/05 10:08:09;;;;;;;21.55;6.43;;;;;;;;;;4955819;28;20460;-67
2024/04/05 10:10:36;;;;;;;29.83;7.75;;;;;;;;;;4965118;28;20542;-65
2024/04/05 10:13:16;;;;;;;20.70;6.10;;;;;;;;;;4951156;28;20057;-67
2024/04/05 10:15:59;;;;;;;17.83;7.03;;;;;;;;;;4947662;28;20053;-66
2024/04/05 10:18:26;;;;;;;24.73;7.80;;;;;;;;;;4948433;28;20051;-66
2024/04/05 10:21:00;;;;;;;20.35;6.20;;;;;;;;;;4963021;28;20042;-67
2024/04/05 10:23:26;;;;;;;21.17;6.20;;;;;;;;;;4958778;28;20043;-67
2024/04/05 10:25:52;;;;;;;16.10;5.03;;;;;;;;;;4953422;28;20054;-67
2024/04/05 10:28:21;;;;;;;24.70;7.38;;;;;;;;;;4957032;28;20058;-67
2024/04/05 10:30:47;;;;;;;19.92;6.03;;;;;;;;;;4946267;28;20121;-67
2024/04/05 10:33:20;;;;;;;23.05;6.25;;;;;;;;;;4947824;28;20051;-67
2024/04/05 10:35:46;;;;;;;25.23;7.03;;;;;;;;;;4964821;28;20109;-67
2024/04/05 10:38:13;;;;;;;21.88;6.30;;;;;;;;;;4945730;28;21330;-67
2024/04/05 10:40:39;;;;;;;19.92;7.40;;;;;;;;;;4961351;28;20332;-67
2024/04/05 10:43:07;;;;;;;14.88;5.32;;;;;;;;;;4947108;28;20126;-67
2024/04/05 10:45:33;;;;;;;19.80;6.35;;;;;;;;;;4947504;28;20055;-67
2024/04/05 10:47:59;;;;;;;20.17;6.65;;;;;;;;;;4954542;28;20128;-66
2024/04/05 10:50:26;;;;;;;17.40;5.90;;;;;;;;;;4942908;28;20058;-67
2024/04/05 10:52:52;;;;;;;21.65;6.47;;;;;;;;;;4959270;28;20050;-66
2024/04/05 10:55:19;;;;;;;21.70;6.72;;;;;;;;;;4960648;28;20101;-66
2024/04/05 10:57:46;;;;;;;23.23;6.88;;;;;;;;;;4951538;28;21748;-67
2024/04/05 11:00:12;;;;;;;16.38;6.20;;;;;;;;;;4968478;28;20039;-67
2024/04/05 11:02:40;;;;;;;18.45;6.25;;;;;;;;;;4968391;28;20367;-67
2024/04/05 11:05:09;;;;;;;25.80;7.05;;;;;;;;;;4968198;28;20098;-66
2024/04/05 11:07:35;;;;;;;16.80;6.22;;;;;;;;;;4947604;28;20419;-66
2024/04/05 11:10:12;;;;;;;19.38;6.50;;;;;;;;;;4960254;28;20063;-66
2024/04/05 11:12:38;;;;;;;16.73;6.65;;;;;;;;;;4951854;28;20182;-66
2024/04/05 11:15:05;;;;;;;17.42;6.60;;;;;;;;;;4952519;28;20046;-66
2024/04/05 11:17:32;;;;;;;18.90;6.97;;;;;;;;;;4951369;28;20055;-66
2024/04/05 11:20:06;;;;;;;21.58;6.70;;;;;;;;;;4951328;29;20050;-67
2024/04/05 11:22:32;;;;;;;18.77;6.20;;;;;;;;;;4947974;28;20122;-66
2024/04/05 11:24:58;;;;;;;19.65;6.18;;;;;;;;;;4947895;29;20039;-66
2024/04/05 11:27:27;;;;;;;16.42;6.00;;;;;;;;;;4944824;29;20035;-67
2024/04/05 11:29:53;;;;;;;16.52;6.10;;;;;;;;;;4943481;28;20496;-66
2024/04/05 11:32:26;;;;;;;19.30;7.40;;;;;;;;;;4957981;28;20051;-67
2024/04/05 11:34:52;;;;;;;20.88;7.05;;;;;;;;;;4944411;28;20052;-66
2024/04/05 11:37:18;;;;;;;17.40;7.30;;;;;;;;;;4949087;28;20058;-66
2024/04/05 11:39:45;;;;;;;20.63;6.00;;;;;;;;;;4943823;29;20085;-66
2024/04/05 11:42:11;;;;;;;19.33;7.05;;;;;;;;;;4940853;29;20039;-66
2024/04/05 11:44:37;;;;;;;18.25;6.43;;;;;;;;;;4946974;29;20129;-66
2024/04/05 11:47:03;;;;;;;19.63;7.38;;;;;;;;;;4948803;29;20047;-66
2024/04/05 11:49:29;;;;;;;18.75;6.50;;;;;;;;;;4944037;29;20070;-67
2024/04/05 11:51:55;;;;;;;14.52;7.00;;;;;;;;;;4948896;28;20118;-66
2024/04/05 11:54:22;;;;;;;16.80;6.28;;;;;;;;;;4947178;29;20051;-66
2024/04/05 11:56:48;;;;;;;16.45;6.05;;;;;;;;;;4951748;29;20135;-66
2024/04/05 11:59:14;;;;;;;16.33;5.88;;;;;;;;;;4950037;29;20035;-66
2024/04/05 12:01:40;;;;;;;14.52;5.00;;;;;;;;;;4954041;28;20058;-68
2024/04/05 12:04:07;;;;;;;20.60;6.07;;;;;;;;;;4950222;29;20051;-67
2024/04/05 12:06:34;;;;;;;17.42;6.55;;;;;;;;;;4953680;28;20086;-67
2024/04/05 12:09:03;;;;;;;18.98;6.68;;;;;;;;;;4970929;28;20050;-67
2024/04/05 12:11:30;;;;;;;19.92;6.22;;;;;;;;;;4953665;28;20109;-67
2024/04/05 12:13:56;;;;;;;14.15;5.43;;;;;;;;;;4954084;28;20130;-67
2024/04/05 12:16:23;;;;;;;15.32;5.38;;;;;;;;;;4968239;28;20038;-66
2024/04/05 12:18:49;;;;;;;17.10;5.13;;;;;;;;;;4968477;28;20130;-67
2024/04/05 12:21:15;;;;;;;12.85;4.63;;;;;;;;;;4953303;28;20093;-67
2024/04/05 12:23:41;;;;;;;14.75;5.22;;;;;;;;;;4969166;28;20553;-67
2024/04/05 12:26:09;;;;;;;11.95;4.80;;;;;;;;;;4948844;28;20047;-67
2024/04/05 12:28:37;;;;;;;13.95;5.50;;;;;;;;;;4945110;28;20487;-67
2024/04/05 12:31:03;;;;;;;15.15;5.45;;;;;;;;;;4964041;28;20394;-67
2024/04/05 12:33:29;;;;;;;12.85;4.88;;;;;;;;;;4946368;28;20068;-67
2024/04/05 12:35:59;;;;;;;15.82;5.95;;;;;;;;;;4960006;28;20112;-67
2024/04/05 12:38:28;;;;;;;12.60;5.32;;;;;;;;;;4961065;28;20527;-67
2024/04/05 12:40:55;;;;;;;11.73;4.72;;;;;;;;;;4945008;28;20051;-67
2024/04/05 12:43:21;;;;;;;12.43;4.57;;;;;;;;;;4966955;28;20113;-67
2024/04/05 12:45:57;;;;;;;10.15;4.40;;;;;;;;;;4948518;28;20043;-67
2024/04/05 12:48:23;;;;;;;11.98;3.55;;;;;;;;;;4949710;28;20062;-67
2024/04/05 12:50:54;;;;;;;11.73;3.22;;;;;;;;;;4945957;28;20062;-67
2024/04/05 12:53:21;;;;;;;10.70;2.53;;;;;;;;;;4949649;28;20047;-66
2024/04/05 12:55:55;;;;;;;13.77;3.25;;;;;;;;;;4961749;28;20106;-67
2024/04/05 12:58:22;;;;;;;9.57;3.13;;;;;;;;;;4965608;28;20560;-68
2024/04/05 13:00:49;;;;;;;11.32;3.20;;;;;;;;;;4949095;28;20050;-67
2024/04/05 13:03:15;;;;;;;12.13;3.40;;;;;;;;;;4967394;28;20042;-67
2024/04/05 13:05:41;;;;;;;9.95;2.08;;;;;;;;;;4965808;28;20039;-67
2024/04/05 13:08:08;;;;;;;10.30;2.25;;;;;;;;;;4963121;28;20541;-67
2024/04/05 13:10:34;;;;;;;17.10;3.85;;;;;;;;;;4946107;28;20189;-81
2024/04/05 13:13:00;;;;;;;12.18;3.08;;;;;;;;;;4952588;28;20039;-67
2024/04/05 13:15:26;;;;;;;14.35;2.55;;;;;;;;;;4947826;28;20539;-67
2024/04/05 13:17:52;;;;;;;17.48;3.20;;;;;;;;;;4947531;28;20049;-66
2024/04/05 13:20:23;;;;;;;14.05;2.72;;;;;;;;;;4969656;28;20198;-66
2024/04/05 13:22:49;;;;;;;14.15;2.83;;;;;;;;;;4967827;28;20043;-66
2024/04/05 13:25:15;;;;;;;9.98;2.28;;;;;;;;;;4969736;28;20477;-66
2024/04/05 13:27:41;;;;;;;14.02;2.58;;;;;;;;;;4967712;28;20134;-67
2024/04/05 13:30:08;;;;;;;9.05;2.05;;;;;;;;;;4934293;28;20229;-66
2024/04/05 13:32:35;;;;;;;15.52;2.28;;;;;;;;;;4951713;28;20065;-66
2024/04/05 13:35:02;;;;;;;10.20;2.85;;;;;;;;;;4950994;28;20449;-67
2024/04/05 13:37:28;;;;;;;10.23;2.53;;;;;;;;;;4952613;28;20074;-66
2024/04/05 13:39:55;;;;;;;14.20;2.80;;;;;;;;;;4954530;28;20651;-66
2024/04/05 13:42:21;;;;;;;10.52;2.33;;;;;;;;;;4965455;28;20085;-66
2024/04/05 13:44:51;;;;;;;13.65;2.97;;;;;;;;;;4947697;28;20126;-67
2024/04/05 13:47:19;;;;;;;14.45;2.63;;;;;;;;;;4947742;28;20058;-66
2024/04/05 13:49:46;;;;;;;14.60;3.40;;;;;;;;;;4964462;28;20050;-66
2024/04/05 13:52:12;;;;;;;20.27;3.83;;;;;;;;;;4965774;28;20039;-67
2024/04/05 13:54:39;;;;;;;14.25;2.75;;;;;;;;;;4966950;28;20185;-67
2024/04/05 13:57:06;;;;;;;13.50;3.35;;;;;;;;;;4966060;28;20082;-67
2024/04/05 13:59:32;;;;;;;10.60;3.38;;;;;;;;;;4948965;28;20398;-67
2024/04/05 14:01:58;;;;;;;14.95;3.45;;;;;;;;;;4948643;28;20039;-67
2024/04/05 14:04:25;;;;;;;14.45;2.47;;;;;;;;;;4949681;28;20039;-67
2024/04/05 14:06:52;;;;;;;14.45;2.90;;;;;;;;;;4944940;28;20126;-67
2024/04/05 14:09:18;;;;;;;13.95;3.70;;;;;;;;;;4957839;28;20376;-67
2024/04/05 14:11:45;;;;;;;13.88;2.58;;;;;;;;;;4937291;29;20078;-67
2024/04/05 14:14:11;;;;;;;12.55;2.50;;;;;;;;;;4962172;28;20047;-67
2024/04/05 14:16:42;;;;;;;12.48;2.88;;;;;;;;;;4958447;28;20058;-67
2024/04/05 14:19:08;;;;;;;16.80;3.65;;;;;;;;;;4946467;28;20146;-67
2024/04/05 14:21:34;;;;;;;19.05;3.63;;;;;;;;;;4945916;29;20125;-67
2024/04/05 14:24:00;;;;;;;13.30;2.63;;;;;;;;;;4944827;29;20446;-67
2024/04/05 14:26:26;;;;;;;11.70;2.30;;;;;;;;;;4947088;29;20042;-67